createdAt,value
2022-10-20T00:00:24.965Z,91.50
2022-10-20T00:03:12.243Z,92.20
2022-10-20T00:05:39.471Z,93.30
2022-10-20T00:08:06.726Z,92.90
2022-10-20T00:10:34.133Z,93.60
2022-10-20T00:13:01.330Z,94.20
2022-10-20T00:15:28.266Z,95.40
2022-10-20T00:17:55.518Z,96.80
2022-10-20T00:20:22.651Z,99.90
2022-10-20T00:22:49.934Z,99.90
2022-10-20T00:25:17.365Z,99.90
2022-10-20T00:27:44.481Z,98.80
2022-10-20T00:30:11.612Z,98.50
2022-10-20T00:32:39.000Z,98.00
2022-10-20T00:35:06.520Z,97.50
2022-10-20T00:37:33.695Z,96.90
2022-10-20T00:40:00.772Z,97.30
2022-10-20T00:42:28.006Z,96.50
2022-10-20T00:44:59.891Z,96.50
2022-10-20T00:47:59.150Z,96.70
2022-10-20T00:50:41.909Z,97.80
2022-10-20T00:53:09.231Z,98.60
2022-10-20T00:55:40.775Z,99.20
2022-10-20T00:58:08.291Z,99.40
2022-10-20T01:00:37.734Z,99.30
2022-10-20T01:03:08.127Z,99.50
2022-10-20T01:05:35.100Z,99.90
2022-10-20T01:08:02.309Z,99.90
2022-10-20T01:10:35.188Z,99.90
2022-10-20T01:13:19.857Z,99.90
2022-10-20T01:15:51.564Z,99.90
2022-10-20T01:18:53.667Z,99.90
2022-10-20T01:21:35.972Z,99.90
2022-10-20T01:24:35.642Z,97.50
2022-10-20T01:27:39.780Z,94.10
2022-10-20T01:30:15.888Z,91.70
2022-10-20T01:32:58.003Z,91.20
2022-10-20T01:35:54.039Z,91.60
2022-10-20T01:38:24.486Z,93.60
2022-10-20T01:40:59.062Z,96.20
2022-10-20T01:43:30.414Z,99.90
2022-10-20T01:46:00.093Z,99.90
2022-10-20T01:48:33.299Z,99.90
2022-10-20T01:51:01.972Z,99.90
2022-10-20T01:53:29.179Z,99.90
2022-10-20T01:55:58.911Z,99.90
2022-10-20T01:58:28.761Z,99.90
2022-10-20T02:01:03.923Z,99.90
2022-10-20T02:03:42.302Z,99.90
2022-10-20T02:06:28.384Z,99.90
2022-10-20T02:09:02.321Z,98.90
2022-10-20T02:11:48.230Z,97.90
2022-10-20T02:14:18.457Z,98.30
2022-10-20T02:16:56.745Z,96.20
2022-10-20T02:19:27.078Z,94.40
2022-10-20T02:21:56.350Z,94.30
2022-10-20T02:24:32.161Z,91.30
2022-10-20T02:27:02.858Z,88.70
2022-10-20T02:29:35.062Z,85.60
2022-10-20T02:32:02.862Z,85.00
2022-10-20T02:34:29.955Z,86.20
2022-10-20T02:36:58.720Z,87.10
2022-10-20T02:39:26.772Z,89.00
2022-10-20T02:41:54.726Z,90.00
2022-10-20T02:44:22.835Z,90.90
2022-10-20T02:46:50.144Z,92.10
2022-10-20T02:49:17.190Z,93.10
2022-10-20T02:51:44.486Z,93.60
2022-10-20T02:54:11.446Z,93.40
2022-10-20T02:56:38.627Z,93.50
2022-10-20T02:59:05.595Z,94.30
2022-10-20T03:01:33.033Z,95.10
2022-10-20T03:04:00.742Z,95.60
2022-10-20T03:06:27.978Z,97.70
2022-10-20T03:08:55.274Z,99.90
2022-10-20T03:11:22.722Z,99.90
2022-10-20T03:13:49.756Z,99.90
2022-10-20T03:16:17.016Z,99.80
2022-10-20T03:18:44.108Z,99.90
2022-10-20T03:21:11.388Z,99.90
2022-10-20T03:23:38.343Z,99.90
2022-10-20T03:26:10.728Z,99.90
2022-10-20T03:28:38.586Z,99.90
2022-10-20T03:31:06.637Z,99.90
2022-10-20T03:33:33.840Z,99.90
2022-10-20T03:36:01.023Z,99.90
2022-10-20T03:38:28.030Z,99.90
2022-10-20T03:40:55.287Z,99.90
2022-10-20T03:43:23.762Z,99.90
2022-10-20T03:45:51.376Z,99.90
2022-10-20T03:48:18.355Z,99.90
2022-10-20T03:50:45.622Z,99.90
2022-10-20T03:53:14.051Z,99.90
2022-10-20T03:55:41.292Z,99.90
2022-10-20T03:58:08.503Z,99.90
2022-10-20T04:00:35.878Z,99.90
2022-10-20T04:03:02.816Z,99.90
2022-10-20T04:05:30.088Z,99.90
2022-10-20T04:07:57.194Z,99.90
2022-10-20T04:10:24.382Z,99.90
2022-10-20T04:12:51.337Z,99.90
2022-10-20T04:15:18.813Z,99.90
2022-10-20T04:17:45.755Z,99.90
2022-10-20T04:20:13.288Z,99.90
2022-10-20T04:22:40.641Z,99.90
2022-10-20T04:25:08.116Z,99.90
2022-10-20T04:27:35.338Z,99.90
2022-10-20T04:30:02.838Z,99.90
2022-10-20T04:32:29.828Z,99.90
2022-10-20T04:34:57.183Z,99.90
2022-10-20T04:37:24.362Z,99.90
2022-10-20T04:39:51.639Z,99.90
2022-10-20T04:42:19.557Z,99.90
2022-10-20T04:44:47.028Z,99.90
2022-10-20T04:47:14.075Z,99.90
2022-10-20T04:49:41.462Z,99.90
2022-10-20T04:52:09.005Z,99.90
2022-10-20T04:54:36.272Z,99.90
2022-10-20T04:57:04.322Z,99.90
2022-10-20T04:59:31.719Z,99.90
2022-10-20T05:02:00.968Z,99.90
2022-10-20T05:04:28.313Z,99.90
2022-10-20T05:06:55.273Z,99.90
2022-10-20T05:09:22.476Z,99.90
2022-10-20T05:11:49.519Z,99.90
2022-10-20T05:14:16.796Z,99.90
2022-10-20T05:16:43.758Z,99.90
2022-10-20T05:19:11.668Z,99.90
2022-10-20T05:21:39.142Z,99.90
2022-10-20T05:24:06.848Z,99.90
2022-10-20T05:26:37.124Z,99.90
2022-10-20T05:29:06.377Z,99.90
2022-10-20T05:31:40.866Z,99.90
2022-10-20T05:34:09.017Z,99.90
2022-10-20T05:36:36.668Z,99.90
2022-10-20T05:39:04.759Z,99.90
2022-10-20T05:41:36.462Z,99.90
2022-10-20T05:44:08.998Z,99.90
2022-10-20T05:46:41.120Z,99.90
2022-10-20T05:49:14.035Z,99.90
2022-10-20T05:51:41.335Z,99.90
2022-10-20T05:54:11.898Z,99.90
2022-10-20T05:56:39.156Z,99.90
2022-10-20T05:59:06.428Z,99.90
2022-10-20T06:01:47.735Z,99.90
2022-10-20T06:04:23.772Z,99.90
2022-10-20T06:06:52.414Z,99.90
2022-10-20T06:09:20.711Z,99.90
2022-10-20T06:11:48.248Z,99.90
2022-10-20T06:14:16.097Z,99.90
2022-10-20T06:16:43.718Z,99.90
2022-10-20T06:19:11.302Z,96.00
2022-10-20T06:21:38.631Z,88.70
2022-10-20T06:24:06.669Z,72.70
2022-10-20T06:26:39.909Z,67.40
2022-10-20T06:29:10.985Z,74.60
2022-10-20T06:31:43.212Z,67.00
2022-10-20T06:34:17.063Z,63.10
2022-10-20T06:36:48.089Z,56.90
2022-10-20T06:39:18.388Z,25.30
2022-10-20T06:41:50.580Z,18.60
2022-10-20T06:44:23.187Z,1.00
2022-10-20T06:46:52.605Z,1.00
2022-10-20T06:49:20.934Z,1.00
2022-10-20T06:51:48.051Z,99.90
2022-10-20T06:54:15.316Z,99.90
2022-10-20T06:56:42.301Z,1.00
2022-10-20T06:59:09.508Z,99.90
2022-10-20T07:01:38.561Z,99.90
2022-10-20T07:04:08.427Z,1.00
2022-10-20T07:06:38.610Z,1.00
2022-10-20T07:09:08.671Z,1.00
2022-10-20T07:11:35.978Z,1.00
2022-10-20T07:14:04.513Z,1.00
2022-10-20T07:16:34.248Z,99.90
2022-10-20T07:19:03.130Z,1.00
2022-10-20T07:21:38.316Z,1.00
2022-10-20T07:24:09.729Z,1.00
2022-10-20T07:26:39.244Z,1.00
2022-10-20T07:29:06.854Z,99.90
2022-10-20T07:31:37.815Z,99.90
2022-10-20T07:34:20.378Z,99.90
2022-10-20T07:36:57.018Z,99.90
2022-10-20T07:39:24.901Z,99.90
2022-10-20T07:41:52.444Z,99.90
2022-10-20T07:44:19.986Z,99.90
2022-10-20T07:46:47.072Z,99.90
2022-10-20T07:49:42.838Z,99.90
2022-10-20T07:52:01.190Z,99.90
2022-10-20T07:54:28.484Z,99.90
2022-10-20T07:56:55.520Z,99.90
2022-10-20T07:59:24.630Z,99.90
2022-10-20T08:01:54.753Z,99.90
2022-10-20T08:04:23.630Z,99.90
2022-10-20T08:06:50.768Z,99.90
2022-10-20T08:09:17.953Z,99.90
2022-10-20T08:11:44.931Z,99.90
2022-10-20T08:14:12.137Z,99.90
2022-10-20T08:16:45.793Z,99.90
2022-10-20T08:19:29.787Z,99.90
2022-10-20T08:21:56.788Z,99.90
2022-10-20T08:24:23.974Z,14.40
2022-10-20T08:26:50.978Z,1.00
2022-10-20T08:29:18.212Z,99.90
2022-10-20T08:31:45.501Z,99.90
2022-10-20T08:34:14.314Z,1.00
2022-10-20T08:36:41.329Z,1.00
2022-10-20T08:39:08.556Z,99.90
2022-10-20T08:42:07.454Z,92.40
2022-10-20T08:44:33.118Z,1.00
2022-10-20T08:47:03.383Z,99.90
2022-10-20T08:49:33.849Z,99.90
2022-10-20T08:52:02.039Z,99.90
2022-10-20T08:54:32.232Z,99.90
2022-10-20T08:56:59.333Z,99.90
2022-10-20T08:59:35.527Z,1.00
2022-10-20T09:02:14.790Z,1.00
2022-10-20T09:04:55.897Z,99.90
2022-10-20T09:07:34.641Z,89.90
2022-10-20T09:10:18.238Z,5.90
2022-10-20T09:12:48.017Z,99.90
2022-10-20T09:15:17.588Z,99.90
2022-10-20T09:17:50.633Z,99.90
2022-10-20T09:20:23.917Z,99.90
2022-10-20T09:22:51.290Z,56.00
2022-10-20T09:25:24.068Z,99.90
2022-10-20T09:27:52.389Z,99.90
2022-10-20T09:30:33.292Z,99.90
2022-10-20T09:33:01.177Z,1.00
2022-10-20T09:35:33.906Z,99.90
2022-10-20T09:38:11.395Z,99.90
2022-10-20T09:40:54.848Z,99.90
2022-10-20T09:43:21.897Z,99.90
2022-10-20T09:45:59.909Z,99.90
2022-10-20T09:48:35.188Z,99.90
2022-10-20T09:51:04.182Z,99.90
2022-10-20T09:53:45.383Z,6.30
2022-10-20T09:56:12.767Z,99.90
2022-10-20T09:58:40.115Z,99.90
2022-10-20T10:01:14.789Z,1.00
2022-10-20T10:03:45.412Z,99.90
2022-10-20T10:06:44.210Z,99.90
2022-10-20T10:09:34.496Z,99.90
2022-10-20T10:12:06.332Z,14.10
2022-10-20T10:14:36.420Z,72.00
2022-10-20T10:17:04.791Z,1.00
2022-10-20T10:19:34.103Z,91.10
2022-10-20T10:22:03.635Z,99.90
2022-10-20T10:24:48.399Z,70.70
2022-10-20T10:27:20.355Z,1.00
2022-10-20T10:29:49.915Z,99.90
2022-10-20T10:32:23.874Z,99.90
2022-10-20T10:35:13.226Z,99.90
2022-10-20T10:37:43.229Z,90.60
2022-10-20T10:40:31.892Z,99.90
2022-10-20T10:42:59.038Z,1.00
2022-10-20T10:45:57.234Z,1.00
2022-10-20T10:48:40.832Z,1.00
2022-10-20T10:51:18.850Z,99.90
2022-10-20T10:53:55.467Z,99.90
2022-10-20T10:56:44.965Z,1.00
2022-10-20T10:59:44.251Z,82.60
2022-10-20T11:02:44.831Z,99.90
2022-10-20T11:05:24.714Z,99.90
2022-10-20T11:08:17.292Z,88.20
2022-10-20T11:11:08.190Z,4.90
2022-10-20T11:13:51.355Z,19.50
2022-10-20T11:16:40.303Z,51.80
2022-10-20T11:19:44.112Z,41.20
2022-10-20T11:22:28.941Z,1.00
2022-10-20T11:25:21.363Z,1.00
2022-10-20T11:27:49.321Z,1.00
2022-10-20T11:30:22.213Z,83.40
2022-10-20T11:33:16.410Z,89.50
2022-10-20T11:35:54.455Z,80.00
2022-10-20T11:38:36.063Z,86.00
2022-10-20T11:44:21.816Z,99.90
2022-10-20T11:46:53.309Z,99.90
2022-10-20T11:49:20.827Z,99.90
2022-10-20T11:52:06.735Z,99.90
2022-10-20T11:55:00.503Z,99.90
2022-10-20T11:57:42.131Z,99.90
2022-10-20T12:03:17.147Z,99.90
2022-10-20T12:06:06.308Z,99.90
2022-10-20T12:08:54.403Z,99.90
2022-10-20T12:11:35.590Z,99.90
2022-10-20T12:14:24.062Z,99.90
2022-10-20T12:16:54.455Z,99.90
2022-10-20T12:19:30.163Z,99.90
2022-10-20T12:22:00.719Z,81.50
2022-10-20T12:24:41.025Z,61.10
2022-10-20T12:27:11.526Z,70.50
2022-10-20T12:29:38.596Z,50.00
2022-10-20T12:32:27.391Z,99.90
2022-10-20T12:35:02.153Z,92.40
2022-10-20T12:37:29.360Z,99.90
2022-10-20T12:40:18.030Z,99.90
2022-10-20T12:42:52.098Z,99.90
2022-10-20T12:45:19.127Z,99.90
2022-10-20T12:47:53.984Z,99.90
2022-10-20T12:50:42.571Z,99.90
2022-10-20T12:53:29.561Z,99.90
2022-10-20T12:56:06.759Z,99.90
2022-10-20T12:58:39.356Z,99.90
2022-10-20T13:01:10.042Z,99.90
2022-10-20T13:03:48.202Z,99.90
2022-10-20T13:06:27.919Z,99.90
2022-10-20T13:09:07.626Z,99.90
2022-10-20T13:11:38.171Z,99.90
2022-10-20T13:14:27.099Z,99.90
2022-10-20T13:17:00.456Z,99.90
2022-10-20T13:19:43.582Z,99.90
2022-10-20T13:22:34.492Z,1.00
2022-10-20T13:25:04.050Z,78.60
2022-10-20T13:27:31.381Z,99.90
2022-10-20T13:29:58.693Z,99.90
2022-10-20T13:33:01.704Z,99.90
2022-10-20T13:36:01.556Z,99.90
2022-10-20T13:38:53.078Z,1.00
2022-10-20T13:41:29.359Z,99.90
2022-10-20T13:44:16.450Z,99.90
2022-10-20T13:47:02.563Z,99.90
2022-10-20T13:49:52.581Z,99.90
2022-10-20T13:52:24.189Z,99.90
2022-10-20T13:54:52.299Z,1.00
2022-10-20T13:57:31.831Z,13.50
2022-10-20T14:00:02.071Z,35.00
2022-10-20T14:02:32.707Z,99.90
2022-10-20T14:05:10.828Z,99.90
2022-10-20T14:07:43.360Z,99.90
2022-10-20T14:10:24.410Z,44.10
2022-10-20T14:12:53.062Z,53.10
2022-10-20T14:15:34.542Z,69.50
2022-10-20T14:18:05.966Z,97.20
2022-10-20T14:20:37.407Z,99.90
2022-10-20T14:23:06.401Z,99.90
2022-10-20T14:25:33.873Z,92.40
2022-10-20T14:28:03.888Z,99.90
2022-10-20T14:30:38.682Z,99.90
2022-10-20T14:33:14.482Z,45.30
2022-10-20T14:35:44.690Z,99.90
2022-10-20T14:38:22.892Z,99.90
2022-10-20T14:40:55.465Z,99.90
2022-10-20T14:43:42.958Z,52.20
2022-10-20T14:46:22.843Z,94.80
2022-10-20T14:48:50.967Z,99.90
2022-10-20T14:51:45.168Z,99.90
2022-10-20T14:54:21.269Z,99.90
2022-10-20T14:56:51.854Z,99.90
2022-10-20T14:59:22.309Z,99.90
2022-10-20T15:02:01.774Z,99.90
2022-10-20T15:04:32.180Z,95.70
2022-10-20T15:07:23.893Z,99.90
2022-10-20T15:09:54.030Z,99.90
2022-10-20T15:12:26.680Z,99.90
2022-10-20T15:15:23.345Z,99.90
2022-10-20T15:18:14.988Z,1.00
2022-10-20T15:20:43.460Z,13.70
2022-10-20T15:23:21.840Z,28.40
2022-10-20T15:25:52.187Z,99.90
2022-10-20T15:28:44.912Z,99.90
2022-10-20T15:31:17.921Z,99.90
2022-10-20T15:33:45.254Z,99.90
2022-10-20T15:36:41.763Z,99.90
2022-10-20T15:39:12.075Z,99.90
2022-10-20T15:41:40.357Z,99.90
2022-10-20T15:44:15.160Z,99.90
2022-10-20T15:46:44.813Z,99.90
2022-10-20T15:49:15.112Z,99.90
2022-10-20T15:51:45.248Z,99.90
2022-10-20T15:54:18.502Z,99.90
2022-10-20T15:56:46.098Z,99.90
2022-10-20T15:59:13.350Z,1.00
2022-10-20T16:01:40.793Z,1.00
2022-10-20T16:04:18.889Z,1.00
2022-10-20T16:06:47.308Z,1.00
2022-10-20T16:09:16.103Z,1.00
2022-10-20T16:11:44.804Z,1.00
2022-10-20T16:14:13.040Z,1.00
2022-10-20T16:16:40.347Z,1.00
2022-10-20T16:19:11.020Z,1.00
2022-10-20T16:21:38.569Z,1.00
2022-10-20T16:24:05.778Z,3.10
2022-10-20T16:26:33.244Z,7.70
2022-10-20T16:29:00.683Z,14.40
2022-10-20T16:31:29.381Z,12.20
2022-10-20T16:33:59.991Z,23.40
2022-10-20T16:36:28.503Z,18.50
2022-10-20T16:38:57.289Z,16.80
2022-10-20T16:41:24.860Z,20.10
2022-10-20T16:43:53.707Z,14.00
2022-10-20T16:46:23.168Z,14.20
2022-10-20T16:48:50.355Z,16.60
2022-10-20T16:51:18.163Z,19.30
2022-10-20T16:53:45.245Z,19.40
2022-10-20T16:56:15.390Z,23.40
2022-10-20T16:58:45.806Z,18.70
2022-10-20T17:01:15.948Z,16.50
2022-10-20T17:03:48.517Z,15.00
2022-10-20T17:06:17.749Z,18.70
2022-10-20T17:08:46.077Z,19.70
2022-10-20T17:11:16.702Z,24.50
2022-10-20T17:13:44.433Z,25.70
2022-10-20T17:16:14.639Z,26.10
2022-10-20T17:18:42.121Z,25.90
2022-10-20T17:21:10.668Z,25.20
2022-10-20T17:23:41.808Z,27.00
2022-10-20T17:26:15.341Z,34.30
2022-10-20T17:28:42.760Z,31.00
2022-10-20T17:31:12.941Z,33.50
2022-10-20T17:33:40.781Z,29.90
2022-10-20T17:36:13.564Z,27.00
2022-10-20T17:38:41.999Z,27.40
2022-10-20T17:41:14.384Z,31.60
2022-10-20T17:43:41.869Z,35.10
2022-10-20T17:46:13.455Z,35.40
2022-10-20T17:48:41.214Z,35.10
2022-10-20T17:51:11.702Z,32.10
2022-10-20T17:53:41.455Z,33.20
2022-10-20T17:56:13.118Z,28.10
2022-10-20T17:58:43.770Z,30.50
2022-10-20T18:01:35.609Z,25.30
2022-10-20T18:04:11.400Z,23.60
2022-10-20T18:06:39.246Z,24.10
2022-10-20T18:09:12.271Z,27.30
2022-10-20T18:11:42.582Z,29.20
2022-10-20T18:14:09.939Z,26.70
2022-10-20T18:16:38.256Z,22.60
2022-10-20T18:19:06.318Z,22.30
2022-10-20T18:21:33.898Z,25.90
2022-10-20T18:24:04.543Z,28.50
2022-10-20T18:26:35.137Z,28.40
2022-10-20T18:29:04.731Z,33.40
2022-10-20T18:31:33.804Z,30.50
2022-10-20T18:34:07.470Z,33.50
2022-10-20T18:36:38.074Z,35.60
2022-10-20T18:39:08.664Z,31.80
2022-10-20T18:41:39.097Z,33.80
2022-10-20T18:44:10.549Z,30.40
2022-10-20T18:46:39.283Z,30.70
2022-10-20T18:49:09.287Z,27.30
2022-10-20T18:51:37.551Z,29.60
2022-10-20T18:54:07.086Z,29.70
2022-10-20T18:56:35.785Z,33.10
2022-10-20T18:59:07.750Z,37.60
2022-10-20T19:01:37.532Z,41.00
2022-10-20T19:04:05.871Z,44.00
2022-10-20T19:06:37.089Z,44.90
2022-10-20T19:09:06.944Z,42.30
2022-10-20T19:11:39.651Z,40.70
2022-10-20T19:14:09.964Z,41.60
2022-10-20T19:16:40.404Z,44.60
2022-10-20T19:19:09.167Z,43.80
2022-10-20T19:21:36.518Z,43.00
2022-10-20T19:24:09.947Z,44.10
2022-10-20T19:26:42.589Z,43.00
2022-10-20T19:29:15.508Z,44.60
2022-10-20T19:31:44.104Z,45.90
2022-10-20T19:34:19.053Z,42.90
2022-10-20T19:36:46.960Z,47.50
2022-10-20T19:39:19.773Z,45.40
2022-10-20T19:41:47.090Z,46.40
2022-10-20T19:44:17.487Z,45.00
2022-10-20T19:46:46.581Z,48.30
2022-10-20T19:49:14.651Z,50.60
2022-10-20T19:51:42.602Z,48.20
2022-10-20T19:54:09.756Z,48.60
2022-10-20T19:56:37.540Z,45.30
2022-10-20T19:59:05.838Z,43.40
2022-10-20T20:01:36.769Z,45.70
2022-10-20T20:04:04.698Z,48.20
2022-10-20T20:06:33.411Z,47.10
2022-10-20T20:09:03.494Z,47.30
2022-10-20T20:11:31.385Z,49.20
2022-10-20T20:14:01.118Z,49.50
2022-10-20T20:16:29.625Z,49.10
2022-10-20T20:18:57.067Z,49.90
2022-10-20T20:21:25.979Z,49.60
2022-10-20T20:24:01.713Z,49.40
2022-10-20T20:26:34.862Z,50.90
2022-10-20T20:29:02.867Z,50.40
2022-10-20T20:31:30.592Z,48.20
2022-10-20T20:33:57.879Z,45.40
2022-10-20T20:36:27.240Z,48.30
2022-10-20T20:38:57.480Z,44.60
2022-10-20T20:41:27.303Z,46.10
2022-10-20T20:43:54.731Z,47.80
2022-10-20T20:46:23.487Z,47.20
2022-10-20T20:48:51.019Z,44.00
2022-10-20T20:51:18.881Z,46.40
2022-10-20T20:53:45.927Z,42.70
2022-10-20T20:56:15.633Z,41.60
2022-10-20T20:58:49.077Z,41.20
2022-10-20T21:01:24.988Z,39.00
2022-10-20T21:03:56.565Z,42.40
2022-10-20T21:06:33.069Z,46.90
2022-10-20T21:09:06.880Z,42.80
2022-10-20T21:11:34.230Z,44.80
2022-10-20T21:14:01.514Z,47.50
2022-10-20T21:16:30.442Z,44.70
2022-10-20T21:19:00.331Z,44.30
2022-10-20T21:21:30.335Z,45.50
2022-10-20T21:23:58.305Z,41.40
2022-10-20T21:26:27.245Z,45.40
2022-10-20T21:28:56.163Z,47.20
2022-10-20T21:31:25.183Z,47.40
2022-10-20T21:33:54.207Z,47.90
2022-10-20T21:36:22.478Z,55.90
2022-10-20T21:38:49.991Z,50.30
2022-10-20T21:41:18.329Z,49.90
2022-10-20T21:43:48.549Z,49.30
2022-10-20T21:46:21.743Z,55.00
2022-10-20T21:48:51.824Z,56.20
2022-10-20T21:51:25.013Z,58.50
2022-10-20T21:54:03.928Z,57.00
2022-10-20T21:56:34.184Z,57.40
2022-10-20T21:59:01.210Z,60.50
2022-10-20T22:01:28.413Z,63.00
2022-10-20T22:03:55.824Z,66.20
2022-10-20T22:06:25.517Z,67.20
2022-10-20T22:08:58.327Z,64.10
2022-10-20T22:11:30.979Z,65.70
2022-10-20T22:13:58.529Z,67.20
2022-10-20T22:16:30.545Z,65.50
2022-10-20T22:19:00.368Z,65.70
2022-10-20T22:21:29.713Z,67.60
2022-10-20T22:23:58.736Z,64.80
2022-10-20T22:26:27.791Z,68.50
2022-10-20T22:28:55.248Z,69.70
2022-10-20T22:31:23.287Z,70.30
2022-10-20T22:33:58.466Z,68.70
2022-10-20T22:36:26.400Z,69.10
2022-10-20T22:38:53.450Z,70.00
2022-10-20T22:41:20.710Z,70.10
2022-10-20T22:43:48.100Z,71.80
2022-10-20T22:46:18.103Z,75.10
2022-10-20T22:48:46.332Z,71.10
2022-10-20T22:51:13.946Z,72.60
2022-10-20T22:53:41.339Z,74.40
2022-10-20T22:56:17.087Z,74.10
2022-10-20T22:58:44.798Z,72.70
2022-10-20T23:01:17.822Z,68.70
2022-10-20T23:03:45.407Z,69.30
2022-10-20T23:06:16.412Z,69.90
2022-10-20T23:08:46.377Z,72.00
2022-10-20T23:11:15.250Z,73.00
2022-10-20T23:13:42.326Z,71.40
2022-10-20T23:16:10.387Z,73.10
2022-10-20T23:18:37.670Z,72.90
2022-10-20T23:21:05.289Z,72.50
2022-10-20T23:23:32.896Z,70.70
2022-10-20T23:26:02.304Z,69.80
2022-10-20T23:28:31.928Z,70.60
2022-10-20T23:31:05.951Z,69.10
2022-10-20T23:33:33.049Z,70.10
2022-10-20T23:36:00.255Z,68.70
2022-10-20T23:38:27.219Z,73.40
2022-10-20T23:40:54.413Z,72.90
2022-10-20T23:43:21.506Z,71.10
2022-10-20T23:45:49.453Z,71.40
2022-10-20T23:48:16.887Z,68.00
2022-10-20T23:50:44.680Z,71.60
2022-10-20T23:53:12.153Z,69.80
2022-10-20T23:55:39.486Z,71.40
2022-10-20T23:58:06.555Z,70.10
